Time;durP1;ratioP1;P1;durP2;ratioP2;P2;SDS_P1;SDS_P2;PMS_P1;PMS_P2;Temp;Humidity;BMP_temperature;BMP_pressure;BME280_temperature;BME280_humidity;BME280_pressure;Samples;Min_cycle;Max_cycle;Signal;HPM_P1;HPM_P2
2023/11/15 00:00:13;;;;;;;5.10;2.00;;;;;;;16.24;72.36;99471.50;106209;1254;73112;-88
2023/11/15 00:02:53;;;;;;;5.40;2.00;;;;;;;16.27;71.92;99471.54;106225;1260;61348;-86
2023/11/15 00:05:33;;;;;;;4.90;2.00;;;;;;;16.23;72.12;99467.52;106240;1254;61411;-85
2023/11/15 00:08:01;;;;;;;5.70;1.80;;;;;;;16.35;71.25;99470.87;105980;1254;74599;-85
2023/11/15 00:10:44;;;;;;;3.60;1.80;;;;;;;16.46;69.98;99470.13;106463;1255;67537;-88
2023/11/15 00:13:24;;;;;;;5.30;2.10;;;;;;;16.49;69.30;99469.70;106403;1259;71479;-86
2023/11/15 00:16:06;;;;;;;8.10;2.10;;;;;;;16.45;69.13;99468.21;106360;1254;61363;-86
2023/11/15 00:18:34;;;;;;;6.00;2.50;;;;;;;16.53;68.29;99465.34;106466;1259;61276;-87
2023/11/15 00:21:14;;;;;;;7.10;2.10;;;;;;;16.51;68.15;99467.69;106272;1259;75106;-86
2023/11/15 00:23:54;;;;;;;3.80;1.80;;;;;;;16.49;68.16;99473.16;106310;1259;68402;-89
2023/11/15 00:26:29;;;;;;;4.90;2.10;;;;;;;16.42;68.62;99471.56;106218;1259;72480;-89
2023/11/15 00:29:03;;;;;;;3.90;2.00;;;;;;;16.13;70.79;99475.45;106923;1254;61676;-86
2023/11/15 00:31:43;;;;;;;4.40;1.60;;;;;;;16.02;71.98;99469.81;106304;1254;61354;-86
2023/11/15 00:34:23;;;;;;;4.70;1.70;;;;;;;15.91;73.29;99472.41;106366;1254;74870;-85
2023/11/15 00:36:57;;;;;;;4.20;1.90;;;;;;;15.87;73.87;99475.64;106406;1254;67208;-89
2023/11/15 00:39:34;;;;;;;3.10;1.50;;;;;;;15.92;73.51;99472.05;106247;1254;74028;-88
2023/11/15 00:42:17;;;;;;;5.80;2.10;;;;;;;16.02;72.71;99466.64;106013;1253;61211;-89
2023/11/15 00:44:57;;;;;;;4.70;2.00;;;;;;;15.96;72.93;99458.24;106288;1259;61223;-87
2023/11/15 00:47:39;;;;;;;5.60;1.90;;;;;;;16.15;71.83;99456.95;106833;1253;74585;-86
2023/11/15 00:50:07;;;;;;;3.40;1.90;;;;;;;16.23;71.16;99450.83;106155;1255;68532;-86
2023/11/15 00:52:47;;;;;;;5.70;1.90;;;;;;;16.29;70.62;99445.77;106227;1256;71459;-85
2023/11/15 00:55:28;;;;;;;4.30;1.90;;;;;;;16.40;70.01;99448.58;106351;1254;61295;-86
2023/11/15 00:58:03;;;;;;;5.00;2.40;;;;;;;16.29;70.37;99440.67;106304;1254;61176;-86
2023/11/15 01:00:44;;;;;;;3.10;1.70;;;;;;;16.25;70.70;99433.73;106367;1259;73390;-86
2023/11/15 01:03:29;;;;;;;6.80;1.90;;;;;;;16.21;70.91;99435.41;106367;1254;68868;-87
2023/11/15 01:06:10;;;;;;;7.40;1.80;;;;;;;16.22;70.91;99431.42;107214;1254;72690;-86
2023/11/15 01:08:50;;;;;;;5.70;2.10;;;;;;;16.19;71.00;99426.30;106409;1257;61439;-86
2023/11/15 01:11:18;;;;;;;6.20;1.90;;;;;;;16.21;70.98;99420.92;106332;1258;61317;-88
2023/11/15 01:13:58;;;;;;;3.50;1.70;;;;;;;16.28;70.47;99420.70;106417;1257;75088;-89
2023/11/15 01:16:38;;;;;;;3.70;1.50;;;;;;;16.32;70.05;99412.48;106214;1253;68343;-86
2023/11/15 01:19:18;;;;;;;5.30;1.90;;;;;;;16.48;69.12;99413.23;106156;1254;72690;-86
2023/11/15 01:21:46;;;;;;;3.50;1.80;;;;;;;16.56;68.35;99415.54;106291;1253;61302;-85
2023/11/15 01:24:26;;;;;;;2.70;1.70;;;;;;;16.59;67.91;99405.55;107452;1253;61189;-88
2023/11/15 01:27:06;;;;;;;4.20;1.50;;;;;;;16.57;67.78;99396.77;106097;1253;73363;-88
2023/11/15 01:29:50;;;;;;;7.00;2.00;;;;;;;16.68;67.19;99390.88;106332;1258;68442;-85
2023/11/15 01:32:17;;;;;;;2.80;1.80;;;;;;;16.61;67.37;99386.88;106304;1257;71035;-89
2023/11/15 01:34:57;;;;;;;5.00;1.80;;;;;;;16.58;67.46;99391.01;106477;1254;61296;-85
2023/11/15 01:37:38;;;;;;;2.90;1.60;;;;;;;16.61;67.30;99385.77;106282;1257;61257;-89
2023/11/15 01:40:20;;;;;;;4.00;1.70;;;;;;;16.64;66.89;99383.02;106332;1254;73245;-88
2023/11/15 01:42:48;;;;;;;6.50;2.20;;;;;;;16.65;66.76;99377.77;106350;1257;67323;-89
2023/11/15 01:45:28;;;;;;;4.80;1.70;;;;;;;16.79;65.84;99377.52;107527;1254;72694;-86
2023/11/15 01:48:08;;;;;;;7.00;1.80;;;;;;;16.77;65.57;99382.32;106374;1258;61715;-86
2023/11/15 01:50:52;;;;;;;3.00;2.00;;;;;;;16.68;65.93;99380.94;106263;1260;61230;-86
2023/11/15 01:53:32;;;;;;;5.00;1.90;;;;;;;16.56;66.46;99387.04;106221;1254;74719;-85
2023/11/15 01:56:13;;;;;;;5.10;1.90;;;;;;;16.54;66.52;99391.31;106309;1254;68353;-86
2023/11/15 01:58:53;;;;;;;3.80;1.50;;;;;;;16.57;66.37;99391.38;106429;1258;72663;-88
2023/11/15 02:01:33;;;;;;;4.90;1.80;;;;;;;16.55;66.11;99392.27;106137;1257;61305;-88
2023/11/15 02:04:13;;;;;;;4.50;1.80;;;;;;;16.56;65.70;99393.02;106266;1254;61250;-89
2023/11/15 02:06:53;;;;;;;4.30;2.00;;;;;;;16.59;65.34;99394.27;106295;1256;73399;-88
2023/11/15 02:09:33;;;;;;;6.30;2.20;;;;;;;16.40;66.26;99399.58;106902;1259;68783;-86
2023/11/15 02:12:17;;;;;;;6.50;2.00;;;;;;;16.34;66.93;99398.29;106703;1254;71107;-88
2023/11/15 02:14:57;;;;;;;3.50;1.80;;;;;;;16.39;67.00;99402.94;106134;1254;62001;-88
2023/11/15 02:17:37;;;;;;;3.20;1.80;;;;;;;16.51;66.55;99411.83;106218;1254;61404;-85
2023/11/15 02:20:22;;;;;;;3.50;2.00;;;;;;;16.76;65.21;99417.55;106276;1254;74701;-88
2023/11/15 02:23:06;;;;;;;7.10;2.10;;;;;;;16.81;64.76;99423.70;106425;1259;67405;-86
2023/11/15 02:25:46;;;;;;;3.30;1.90;;;;;;;16.98;64.03;99429.64;106297;1254;71366;-89
2023/11/15 02:28:25;;;;;;;6.10;2.30;;;;;;;17.09;63.12;99429.85;106219;1257;60050;-86
2023/11/15 02:31:06;;;;;;;5.10;1.50;;;;;;;17.19;62.43;99434.80;106248;1255;61193;-85
2023/11/15 02:33:46;;;;;;;3.30;1.80;;;;;;;17.25;61.67;99428.36;106523;1254;73446;-85
2023/11/15 02:36:28;;;;;;;6.60;2.20;;;;;;;17.22;61.74;99423.86;106346;1258;68688;-89
2023/11/15 02:39:08;;;;;;;4.10;1.90;;;;;;;17.25;61.40;99412.88;106318;1255;72618;-85
2023/11/15 02:41:48;;;;;;;6.10;2.00;;;;;;;17.23;61.03;99408.35;106359;1253;61779;-86
2023/11/15 02:44:28;;;;;;;4.70;1.60;;;;;;;17.12;61.42;99418.13;106396;1254;61328;-86
2023/11/15 02:47:08;;;;;;;4.70;1.80;;;;;;;17.05;61.53;99424.84;106398;1259;74699;-87
2023/11/15 02:49:49;;;;;;;4.20;2.10;;;;;;;16.98;61.69;99424.94;106451;1254;67127;-89
2023/11/15 02:52:29;;;;;;;6.50;1.90;;;;;;;17.07;61.41;99416.69;107543;1254;72925;-85
2023/11/15 02:55:14;;;;;;;6.50;2.20;;;;;;;17.11;60.96;99426.13;106343;1254;61346;-88
2023/11/15 02:57:54;;;;;;;5.80;2.60;;;;;;;17.07;60.86;99427.73;106363;1254;61215;-87
2023/11/15 03:00:34;;;;;;;2.40;1.70;;;;;;;16.98;61.19;99422.64;106417;1254;75134;-87
2023/11/15 03:03:15;;;;;;;5.10;1.90;;;;;;;17.04;60.67;99426.05;106461;1253;68422;-88
2023/11/15 03:05:55;;;;;;;3.50;2.10;;;;;;;16.97;60.70;99432.80;106336;1253;72706;-89
2023/11/15 07:08:43;;;;;;;5.90;2.90;;;;;;;17.74;55.55;99529.68;106288;1253;61243;-87
2023/11/15 07:11:12;;;;;;;6.80;2.70;;;;;;;17.76;55.23;99527.92;106278;1253;61198;-87
2023/11/15 07:13:39;;;;;;;4.40;2.30;;;;;;;17.64;55.53;99528.54;106437;1255;74673;-86
2023/11/15 07:16:10;;;;;;;5.80;2.50;;;;;;;17.67;55.68;99533.14;107369;1253;68469;-87
2023/11/15 07:18:39;;;;;;;5.20;2.20;;;;;;;17.82;55.09;99537.14;106288;1253;72713;-86
2023/11/15 07:21:07;;;;;;;7.20;2.60;;;;;;;17.87;54.76;99531.54;106371;1253;61386;-88
2023/11/15 07:23:35;;;;;;;7.00;2.50;;;;;;;17.94;54.51;99530.61;106258;1258;61202;-88
2023/11/15 07:26:04;;;;;;;5.70;2.30;;;;;;;17.94;54.18;99528.33;106172;1260;74756;-88
2023/11/15 07:28:31;;;;;;;3.90;2.00;;;;;;;18.06;53.82;99524.55;107742;1254;67463;-87
2023/11/15 07:31:06;;;;;;;5.00;2.40;;;;;;;18.07;53.55;99527.92;106637;1254;71517;-87
2023/11/15 07:33:34;;;;;;;6.30;2.90;;;;;;;18.08;53.44;99525.25;106482;1253;61321;-87
2023/11/15 07:36:06;;;;;;;8.60;3.50;;;;;;;18.12;53.59;99526.77;106431;1252;61288;-87
2023/11/15 07:38:43;;;;;;;4.20;2.00;;;;;;;18.15;53.57;99526.77;106523;1253;74190;-88
2023/11/15 07:41:11;;;;;;;5.80;2.70;;;;;;;18.22;53.47;99527.23;106428;1253;68550;-87
2023/11/15 07:43:41;;;;;;;6.60;2.80;;;;;;;18.21;53.59;99530.02;106980;1253;71394;-87
2023/11/15 07:46:09;;;;;;;5.10;2.60;;;;;;;18.26;53.66;99529.93;106394;1257;61395;-89
2023/11/15 07:48:39;;;;;;;4.40;2.30;;;;;;;18.40;53.22;99530.95;106564;1253;61341;-88
2023/11/15 07:51:11;;;;;;;7.20;2.40;;;;;;;18.48;52.78;99527.13;106539;1254;74606;-87
2023/11/15 07:53:45;;;;;;;4.70;2.30;;;;;;;18.30;52.79;99524.42;106794;1253;68874;-88
2023/11/15 07:56:23;;;;;;;4.50;2.10;;;;;;;18.32;52.63;99524.48;107470;1257;71177;-88
2023/11/15 07:58:57;;;;;;;5.30;2.50;;;;;;;18.35;52.86;99523.61;106569;1253;63764;-88
2023/11/15 08:01:28;;;;;;;6.30;2.30;;;;;;;18.39;53.02;99527.92;107898;1258;59178;-88
2023/11/15 08:04:01;;;;;;;6.80;2.90;;;;;;;18.54;52.65;99516.05;106316;1253;74692;-88
2023/11/15 08:06:37;;;;;;;7.50;2.70;;;;;;;18.65;52.33;99515.80;106465;1254;69083;-89
2023/11/15 08:19:56;;;;;;;7.60;2.70;;;;;;;19.51;50.54;99498.30;107778;1250;61529;-79
2023/11/15 08:22:34;;;;;;;6.20;2.10;;;;;;;19.94;49.51;99494.63;105902;1263;74624;-82
2023/11/15 08:25:01;;;;;;;3.50;2.10;;;;;;;19.89;48.55;99490.24;105489;1262;68979;-82
2023/11/15 08:27:29;;;;;;;5.60;2.30;;;;;;;19.85;48.23;99491.05;105593;1270;74894;-82
2023/11/15 08:29:57;;;;;;;8.00;2.50;;;;;;;20.01;48.02;99486.05;105515;1262;61341;-80
2023/11/15 08:32:24;;;;;;;5.50;2.10;;;;;;;20.18;47.91;99476.33;105729;1268;61403;-81
2023/11/15 08:34:53;;;;;;;7.80;2.80;;;;;;;20.24;47.73;99478.40;105433;1266;74937;-80
2023/11/15 08:37:21;;;;;;;4.60;2.10;;;;;;;20.32;47.23;99479.44;105698;1267;70971;-81
2023/11/15 08:39:49;;;;;;;4.50;2.20;;;;;;;20.41;46.95;99480.62;105577;1266;71529;-81
2023/11/15 08:42:17;;;;;;;9.60;2.60;;;;;;;20.47;46.79;99483.59;105694;1264;61370;-79
2023/11/15 08:44:47;;;;;;;6.70;2.50;;;;;;;20.47;46.51;99482.46;105547;1268;61303;-79
2023/11/15 08:47:15;;;;;;;7.90;2.80;;;;;;;20.51;46.41;99486.52;105130;1266;73798;-80
2023/11/15 08:49:43;;;;;;;9.30;3.70;;;;;;;20.67;46.40;99487.45;105160;1266;69960;-80
2023/11/15 08:52:12;;;;;;;8.90;2.70;;;;;;;20.70;46.08;99480.66;105144;1267;71543;-80
2023/11/15 08:54:40;;;;;;;7.90;2.70;;;;;;;20.62;45.95;99472.69;105655;1265;61395;-80
2023/11/15 08:57:08;;;;;;;6.70;2.40;;;;;;;20.43;46.09;99472.89;105516;1262;213533;-81
2023/11/15 08:59:36;;;;;;;12.30;2.60;;;;;;;20.32;46.40;99465.00;105524;1267;73476;-81
2023/11/15 09:02:05;;;;;;;7.80;2.70;;;;;;;20.30;46.34;99466.39;105574;1266;69800;-81
2023/11/15 09:04:34;;;;;;;6.20;2.60;;;;;;;20.23;46.32;99470.23;105522;1268;71789;-81
2023/11/15 09:07:02;;;;;;;8.60;2.50;;;;;;;20.34;46.51;99469.23;105538;1266;61332;-82
2023/11/15 09:09:30;;;;;;;9.20;2.60;;;;;;;20.46;46.54;99464.53;105517;1263;61234;-83
2023/11/15 09:11:58;;;;;;;6.90;2.80;;;;;;;20.36;46.52;99457.23;105658;1267;74699;-81
2023/11/15 09:14:27;;;;;;;9.10;2.60;;;;;;;20.40;46.40;99456.50;105613;1262;68404;-82
2023/11/15 09:16:58;;;;;;;5.30;2.30;;;;;;;20.35;46.57;99460.37;105567;1266;75507;-80
2023/11/15 09:19:28;;;;;;;6.60;2.40;;;;;;;20.24;46.48;99457.97;105539;1262;61792;-82
2023/11/15 09:21:56;;;;;;;4.90;2.40;;;;;;;20.27;46.28;99449.08;105734;1262;62099;-82
2023/11/15 09:24:26;;;;;;;7.40;2.70;;;;;;;20.16;46.34;99453.14;105670;1264;74883;-83
2023/11/15 09:26:56;;;;;;;5.30;2.40;;;;;;;20.14;46.74;99454.06;105724;1265;68877;-84
2023/11/15 09:29:24;;;;;;;5.50;3.00;;;;;;;20.28;46.74;99448.67;105778;1267;71929;-84
2023/11/15 09:31:53;;;;;;;7.10;2.90;;;;;;;20.47;46.01;99442.68;105731;1267;61322;-83
2023/11/15 09:34:20;;;;;;;5.60;2.50;;;;;;;20.36;46.05;99438.98;105541;1263;61240;-84
2023/11/15 09:36:49;;;;;;;8.50;3.10;;;;;;;20.19;46.26;99440.70;105656;1265;73822;-79
2023/11/15 09:39:17;;;;;;;6.80;3.50;;;;;;;20.09;46.49;99435.66;105447;1264;70902;-80
2023/11/15 09:41:53;;;;;;;4.50;2.50;;;;;;;20.08;46.53;99435.48;105600;1264;72682;-80
2023/11/15 09:44:23;;;;;;;3.70;2.20;;;;;;;20.09;46.56;99436.45;105628;1268;62261;-80
2023/11/15 09:46:57;;;;;;;5.50;2.60;;;;;;;20.04;46.54;99431.75;105743;1267;61414;-83
2023/11/15 09:49:26;;;;;;;7.00;2.60;;;;;;;19.98;46.37;99433.02;105769;1268;74309;-83
2023/11/15 09:51:54;;;;;;;6.80;2.50;;;;;;;19.84;46.58;99437.64;105727;1275;69171;-83
2023/11/15 09:54:22;;;;;;;7.80;2.50;;;;;;;19.73;46.88;99432.69;105551;1265;71712;-83
2023/11/15 09:56:51;;;;;;;6.20;2.70;;;;;;;19.67;46.83;99432.08;105716;1266;61336;-80
2023/11/15 09:59:20;;;;;;;5.70;2.20;;;;;;;19.55;47.54;99430.61;105535;1268;62707;-80
2023/11/15 10:01:48;;;;;;;6.40;2.40;;;;;;;19.58;47.64;99426.98;105677;1268;73657;-84
2023/11/15 10:04:28;;;;;;;4.80;2.10;;;;;;;19.70;47.56;99421.14;105749;1267;69645;-83
2023/11/15 10:06:55;;;;;;;6.50;2.30;;;;;;;19.73;47.58;99424.30;105772;1265;71905;-83
2023/11/15 10:09:38;;;;;;;5.00;2.20;;;;;;;19.65;47.92;99421.96;105628;1263;61267;-83
2023/11/15 10:12:08;;;;;;;4.00;2.00;;;;;;;19.50;48.51;99418.82;105639;1266;61446;-83
2023/11/15 10:14:52;;;;;;;5.00;2.00;;;;;;;19.70;48.12;99419.62;105615;1263;75684;-80
2023/11/15 10:17:38;;;;;;;8.60;2.40;;;;;;;19.78;47.63;99415.59;105505;1264;69557;-80
2023/11/15 10:20:25;;;;;;;4.40;2.20;;;;;;;19.62;48.30;99416.20;105675;1266;73290;-80
2023/11/15 10:22:53;;;;;;;9.90;2.30;;;;;;;19.98;47.55;99410.02;105578;1267;63421;-84
2023/11/15 10:25:21;;;;;;;4.60;2.30;;;;;;;20.09;47.19;99408.96;105605;1267;61625;-83
2023/11/15 10:27:51;;;;;;;8.80;2.00;;;;;;;20.09;47.21;99407.70;105604;1264;76859;-83
2023/11/15 10:30:22;;;;;;;7.70;2.50;;;;;;;20.29;46.88;99405.50;105673;1267;68227;-82
2023/11/15 10:32:51;;;;;;;6.80;2.30;;;;;;;20.25;46.67;99408.14;105450;1265;74987;-81
2023/11/15 10:35:27;;;;;;;9.20;1.90;;;;;;;19.98;47.33;99409.08;105588;1271;61490;-81
2023/11/15 10:37:56;;;;;;;6.50;2.10;;;;;;;19.98;47.74;99409.47;105408;1268;61249;-80
2023/11/15 10:40:29;;;;;;;4.30;2.00;;;;;;;20.04;47.92;99405.15;105437;1264;73422;-83
2023/11/15 10:43:02;;;;;;;6.90;2.70;;;;;;;20.16;47.87;99406.86;105644;1267;68564;-81
2023/11/15 10:45:31;;;;;;;6.50;2.30;;;;;;;20.46;47.22;99404.21;105590;1264;74424;-80
2023/11/15 10:48:05;;;;;;;5.20;2.30;;;;;;;20.61;46.56;99405.10;105585;1264;61396;-84
2023/11/15 10:50:34;;;;;;;9.10;2.30;;;;;;;20.40;46.99;99412.04;105714;1267;62236;-83
2023/11/15 10:53:02;;;;;;;3.70;2.90;;;;;;;20.37;47.47;99413.03;105731;1264;73442;-84
2023/11/15 10:55:30;;;;;;;7.90;2.10;;;;;;;20.40;47.62;99412.83;105600;1262;71026;-84
2023/11/15 10:58:00;;;;;;;5.20;2.10;;;;;;;20.71;47.10;99412.27;105520;1270;74997;-84
2023/11/15 11:00:34;;;;;;;5.10;2.60;;;;;;;20.72;46.60;99405.77;105628;1266;61308;-84
2023/11/15 11:03:02;;;;;;;3.90;2.00;;;;;;;20.79;46.38;99405.64;105721;1263;61649;-84
2023/11/15 11:05:50;;;;;;;4.10;1.90;;;;;;;20.83;46.50;99404.26;105640;1267;73857;-84
2023/11/15 11:08:24;;;;;;;4.50;2.10;;;;;;;20.66;46.76;99407.56;105659;1270;70383;-84
2023/11/15 11:11:10;;;;;;;5.00;2.10;;;;;;;20.71;46.54;99404.56;105719;1264;73635;-84
2023/11/15 11:13:40;;;;;;;5.70;1.90;;;;;;;20.86;46.27;99406.05;105673;1273;63089;-84
2023/11/15 11:16:30;;;;;;;5.10;2.30;;;;;;;20.86;46.24;99405.41;105810;1264;62171;-83
2023/11/15 11:19:22;;;;;;;7.10;2.70;;;;;;;20.84;45.70;99406.19;105542;1264;75640;-83
2023/11/15 11:22:06;;;;;;;4.90;2.10;;;;;;;20.81;45.93;99405.41;105642;1264;67044;-84
2023/11/15 11:24:45;;;;;;;6.30;2.30;;;;;;;20.86;45.92;99406.36;105524;1264;75154;-84
2023/11/15 11:27:14;;;;;;;4.40;2.20;;;;;;;20.82;45.61;99408.36;105569;1264;61380;-84
2023/11/15 11:29:51;;;;;;;6.30;2.60;;;;;;;20.69;45.75;99408.80;105859;1264;61202;-84
2023/11/15 11:32:31;;;;;;;7.30;2.40;;;;;;;20.69;46.04;99410.70;105706;1266;74621;-84
2023/11/15 11:35:00;;;;;;;7.60;2.30;;;;;;;20.78;45.91;99407.91;105725;1263;67745;-84
2023/11/15 11:37:44;;;;;;;5.50;2.30;;;;;;;20.81;45.94;99403.67;105626;1269;71833;-84
2023/11/15 11:40:23;;;;;;;7.40;2.60;;;;;;;20.89;45.60;99404.90;105592;1268;62252;-83
2023/11/15 11:42:54;;;;;;;8.40;2.50;;;;;;;20.85;45.73;99403.65;105740;1264;62591;-83
2023/11/15 11:45:27;;;;;;;5.90;2.00;;;;;;;20.78;45.79;99403.40;105547;1270;75670;-83
2023/11/15 11:47:54;;;;;;;;;;;;;;;20.71;45.79;99400.98;105275;1271;69473;-83
2023/11/15 11:50:23;;;;;;;7.70;2.60;;;;;;;20.82;45.32;99405.60;105695;1267;72730;-82
2023/11/15 11:52:54;;;;;;;6.30;2.30;;;;;;;20.63;45.70;99406.64;105598;1264;61373;-82
2023/11/15 11:55:22;;;;;;;7.10;2.20;;;;;;;20.67;45.72;99402.74;105555;1264;62282;-83
2023/11/15 11:57:50;;;;;;;4.40;2.30;;;;;;;20.58;45.90;99401.91;105535;1266;76812;-83
2023/11/15 12:00:20;;;;;;;6.20;2.60;;;;;;;20.86;45.46;99400.89;105623;1265;68513;-84
2023/11/15 12:02:51;;;;;;;7.30;2.30;;;;;;;21.06;45.30;99399.44;105651;1264;72859;-83
2023/11/15 12:05:31;;;;;;;6.40;2.30;;;;;;;20.92;45.49;99396.61;105656;1264;62385;-84
2023/11/15 12:08:00;;;;;;;7.20;2.50;;;;;;;20.92;45.71;99398.85;105686;1264;61403;-82
2023/11/15 12:10:28;;;;;;;5.50;2.80;;;;;;;20.90;45.54;99396.75;105563;1264;75967;-83
2023/11/15 12:13:03;;;;;;;7.80;3.60;;;;;;;20.91;45.30;99405.27;105598;1268;69909;-83
2023/11/15 12:15:31;;;;;;;8.20;3.00;;;;;;;20.87;45.61;99405.11;105570;1264;73763;-82
2023/11/15 12:17:59;;;;;;;11.60;4.60;;;;;;;20.83;45.97;99403.06;105686;1264;62204;-84
2023/11/15 12:20:39;;;;;;;7.90;2.60;;;;;;;20.78;46.04;99404.18;105683;1262;61266;-84
2023/11/15 12:23:12;;;;;;;6.90;2.50;;;;;;;20.85;45.60;99402.07;105746;1267;76782;-85
2023/11/15 12:25:48;;;;;;;9.20;2.60;;;;;;;20.92;45.32;99405.89;105841;1262;70630;-84
2023/11/15 12:28:19;;;;;;;7.70;3.40;;;;;;;20.87;45.38;99406.69;105748;1264;74892;-85
2023/11/15 12:30:47;;;;;;;4.80;2.40;;;;;;;20.81;45.60;99406.52;105714;1264;61264;-85
2023/11/15 12:33:15;;;;;;;4.70;2.50;;;;;;;20.87;45.50;99410.83;105707;1261;61332;-85
2023/11/15 12:35:43;;;;;;;6.00;2.10;;;;;;;20.93;45.39;99408.92;105746;1264;75674;-85
2023/11/15 12:38:14;;;;;;;5.40;2.00;;;;;;;20.92;45.54;99413.67;105700;1267;69843;-83
2023/11/15 12:40:44;;;;;;;4.90;2.30;;;;;;;20.96;45.24;99414.30;105671;1260;74852;-83
2023/11/15 12:43:19;;;;;;;7.80;2.90;;;;;;;20.87;45.35;99416.85;105779;1260;62189;-83
2023/11/15 12:45:51;;;;;;;6.30;2.60;;;;;;;20.89;45.34;99420.05;105531;1264;61213;-82
2023/11/15 12:48:19;;;;;;;6.60;2.00;;;;;;;20.84;45.70;99419.98;105628;1267;76847;-81
2023/11/15 12:50:47;;;;;;;9.70;2.40;;;;;;;20.87;45.82;99420.26;105712;1269;67652;-81
2023/11/15 12:53:21;;;;;;;7.00;2.70;;;;;;;21.02;45.72;99421.05;105494;1264;74713;-80
2023/11/15 12:55:50;;;;;;;8.00;2.70;;;;;;;21.00;45.78;99429.27;105773;1264;61224;-82
2023/11/15 12:58:18;;;;;;;5.40;2.50;;;;;;;20.81;46.08;99426.77;105587;1264;61225;-83
2023/11/15 13:00:57;;;;;;;5.10;2.10;;;;;;;20.68;46.47;99428.05;105856;1264;74658;-81
2023/11/15 13:03:26;;;;;;;7.60;2.60;;;;;;;20.66;46.57;99428.42;105678;1264;68801;-82
2023/11/15 13:06:07;;;;;;;5.20;2.10;;;;;;;20.69;46.60;99427.69;105760;1264;72337;-82
2023/11/15 13:08:35;;;;;;;6.80;2.20;;;;;;;20.65;46.68;99430.78;105773;1264;62437;-83
2023/11/15 13:11:04;;;;;;;5.50;2.50;;;;;;;20.69;46.50;99430.92;105842;1267;61280;-83
2023/11/15 13:13:39;;;;;;;5.20;2.50;;;;;;;20.60;46.76;99434.83;105684;1267;75079;-83
2023/11/15 13:16:12;;;;;;;9.00;2.60;;;;;;;20.64;46.67;99436.48;105701;1264;69631;-83
2023/11/15 13:18:40;;;;;;;7.60;2.60;;;;;;;20.64;46.64;99439.64;105738;1265;71841;-83
2023/11/15 13:21:08;;;;;;;6.90;3.20;;;;;;;20.56;46.80;99440.54;105662;1264;61275;-83
2023/11/15 13:23:37;;;;;;;8.60;4.00;;;;;;;20.50;46.96;99437.89;105660;1264;61312;-83
2023/11/15 13:26:05;;;;;;;6.70;3.00;;;;;;;20.39;47.09;99442.70;105944;1262;74630;-83
2023/11/15 13:28:34;;;;;;;6.50;2.80;;;;;;;20.33;47.29;99440.30;105759;1268;70094;-83
2023/11/15 13:31:03;;;;;;;9.20;3.40;;;;;;;20.29;47.49;99438.87;105732;1267;72466;-83
2023/11/15 13:33:32;;;;;;;7.70;3.70;;;;;;;20.32;47.62;99436.86;105636;1267;60933;-81
2023/11/15 13:36:00;;;;;;;12.00;4.50;;;;;;;20.26;47.55;99438.65;105605;1268;62448;-81
2023/11/15 13:38:29;;;;;;;9.40;3.50;;;;;;;20.27;47.66;99437.97;105568;1264;75654;-81
2023/11/15 13:41:04;;;;;;;10.10;3.90;;;;;;;20.22;47.78;99442.86;105626;1263;70862;-82
2023/11/15 13:43:32;;;;;;;10.60;4.30;;;;;;;20.13;48.19;99446.36;105616;1267;71814;-82
2023/11/15 13:45:59;;;;;;;6.80;3.40;;;;;;;20.10;48.20;99442.59;105733;1264;63360;-81
2023/11/15 13:48:27;;;;;;;8.10;2.90;;;;;;;19.75;49.12;99450.38;105714;1261;62233;-82
2023/11/15 13:50:55;;;;;;;11.10;2.70;;;;;;;19.64;49.73;99453.54;105551;1264;76588;-81
2023/11/15 13:53:23;;;;;;;7.20;2.60;;;;;;;19.77;49.53;99450.81;105685;1264;69855;-81
2023/11/15 13:55:51;;;;;;;7.10;2.90;;;;;;;19.66;49.97;99453.90;105585;1267;73653;-81
2023/11/15 13:58:20;;;;;;;7.50;3.00;;;;;;;19.65;50.06;99455.05;105831;1263;61273;-81
2023/11/15 14:00:53;;;;;;;7.00;2.70;;;;;;;19.65;50.08;99460.85;105692;1263;61720;-81
2023/11/15 14:03:26;;;;;;;6.20;2.90;;;;;;;19.62;50.20;99466.47;105710;1264;77097;-83
2023/11/15 14:05:56;;;;;;;4.60;3.10;;;;;;;19.46;50.59;99460.52;105634;1264;70973;-81
2023/11/15 14:08:36;;;;;;;7.90;3.20;;;;;;;19.52;50.51;99463.33;105727;1264;74924;-81
2023/11/15 14:11:18;;;;;;;5.40;2.90;;;;;;;19.59;50.61;99462.38;105679;1263;61288;-82
2023/11/15 14:13:47;;;;;;;9.50;3.20;;;;;;;19.31;51.08;99467.48;105643;1262;61250;-82
2023/11/15 14:16:15;;;;;;;7.90;3.50;;;;;;;19.14;51.70;99472.32;105642;1268;76926;-82
2023/11/15 14:18:47;;;;;;;5.50;3.20;;;;;;;19.07;52.02;99472.55;105612;1264;70937;-81
2023/11/15 14:21:15;;;;;;;7.80;3.50;;;;;;;19.04;52.36;99469.16;105646;1264;74802;-81
2023/11/15 14:23:43;;;;;;;10.60;4.20;;;;;;;18.98;52.66;99472.02;105576;1263;61422;-83
2023/11/15 14:26:13;;;;;;;8.00;4.00;;;;;;;19.13;52.34;99472.68;105756;1260;61381;-82
2023/11/15 14:28:45;;;;;;;6.70;3.20;;;;;;;19.11;52.45;99470.11;105702;1262;73247;-81
2023/11/15 14:31:13;;;;;;;6.90;3.40;;;;;;;18.97;52.89;99470.27;105766;1265;69794;-81
2023/11/15 14:33:41;;;;;;;8.50;3.50;;;;;;;19.00;53.05;99470.09;105744;1264;73038;-83
2023/11/15 14:36:09;;;;;;;9.70;3.70;;;;;;;19.06;52.86;99468.50;105659;1267;62322;-82
2023/11/15 14:38:37;;;;;;;8.20;3.40;;;;;;;19.04;52.99;99468.36;105755;1267;61162;-82
2023/11/15 14:41:05;;;;;;;8.80;3.70;;;;;;;19.14;52.82;99469.30;105825;1266;75176;-82
2023/11/15 14:43:33;;;;;;;7.30;3.40;;;;;;;19.14;52.72;99469.79;105678;1267;69623;-82
2023/11/15 14:46:02;;;;;;;5.70;3.10;;;;;;;19.00;53.03;99473.73;105636;1264;74831;-82
2023/11/15 14:48:30;;;;;;;6.10;3.40;;;;;;;18.91;53.38;99471.30;105675;1262;61816;-82
2023/11/15 14:51:00;;;;;;;6.60;3.40;;;;;;;19.05;52.96;99477.73;105758;1262;62108;-82
2023/11/15 14:55:56;;;;;;;7.40;3.50;;;;;;;18.89;53.02;99477.73;105741;1260;68386;-80
2023/11/15 14:58:25;;;;;;;5.60;3.10;;;;;;;18.82;53.16;99477.36;105618;1267;74801;-81
2023/11/15 15:00:54;;;;;;;7.00;3.40;;;;;;;18.72;53.53;99477.77;105703;1264;61283;-81
2023/11/15 15:03:22;;;;;;;6.00;3.40;;;;;;;18.71;53.61;99476.80;105592;1260;62450;-81
2023/11/15 15:05:51;;;;;;;5.80;3.00;;;;;;;18.38;54.73;99481.17;105742;1264;76098;-81
2023/11/15 15:08:21;;;;;;;7.20;3.10;;;;;;;18.21;55.75;99478.91;105771;1261;68965;-82
2023/11/15 15:10:53;;;;;;;5.20;3.30;;;;;;;18.23;55.85;99478.12;105634;1267;74746;-82
2023/11/15 15:13:21;;;;;;;6.60;3.70;;;;;;;18.33;55.83;99483.36;105543;1268;61305;-82
2023/11/15 15:15:49;;;;;;;7.00;3.60;;;;;;;18.30;56.16;99478.84;105712;1262;60016;-82
2023/11/15 15:18:17;;;;;;;12.30;3.90;;;;;;;18.37;56.18;99480.45;105789;1264;76810;-81
2023/11/15 15:20:57;;;;;;;6.80;3.60;;;;;;;18.47;56.26;99483.80;105737;1261;70076;-81
2023/11/15 15:23:25;;;;;;;8.80;3.70;;;;;;;18.45;56.46;99486.98;105690;1263;74809;-81
2023/11/15 15:25:54;;;;;;;9.90;3.40;;;;;;;18.28;57.37;99487.34;105594;1264;62253;-81
2023/11/15 15:28:23;;;;;;;8.80;3.70;;;;;;;18.24;57.74;99483.34;105643;1265;61273;-81
2023/11/15 15:30:53;;;;;;;6.10;3.20;;;;;;;18.19;57.95;99488.27;105742;1262;76851;-82
2023/11/15 15:33:21;;;;;;;7.80;3.20;;;;;;;18.26;57.75;99488.30;105569;1264;71117;-81
2023/11/15 15:35:49;;;;;;;6.80;3.10;;;;;;;18.38;57.27;99491.06;105720;1267;72981;-82
2023/11/15 15:38:17;;;;;;;6.10;3.30;;;;;;;18.41;57.27;99491.15;105649;1264;62158;-82
2023/11/15 15:40:45;;;;;;;9.00;4.10;;;;;;;18.38;57.22;99495.41;105676;1263;61424;-82
2023/11/15 15:43:14;;;;;;;6.80;3.30;;;;;;;18.27;57.68;99494.09;105716;1265;76825;-82
2023/11/15 15:45:44;;;;;;;5.10;3.00;;;;;;;18.28;57.60;99487.00;105659;1264;67953;-82
2023/11/15 15:48:12;;;;;;;6.60;3.60;;;;;;;18.03;58.56;99489.03;105678;1262;71969;-82
2023/11/15 15:50:41;;;;;;;8.80;5.00;;;;;;;18.03;58.88;99492.02;105581;1264;61403;-82
2023/11/15 15:53:09;;;;;;;15.90;9.40;;;;;;;18.06;58.79;99493.06;105727;1264;61252;-83
2023/11/15 15:55:37;;;;;;;12.80;6.30;;;;;;;18.05;59.18;99496.58;105686;1267;76912;-82
2023/11/15 15:58:05;;;;;;;8.80;4.10;;;;;;;17.91;59.94;99496.41;105646;1266;71062;-83
2023/11/15 16:00:33;;;;;;;7.40;3.40;;;;;;;17.72;61.50;99496.47;105722;1264;74970;-82
2023/11/15 16:03:01;;;;;;;7.70;3.80;;;;;;;17.65;62.28;99495.64;105534;1263;61352;-83